sensor_id;sensor_type;location;lat;lon;timestamp;temperature;humidity
4695;DHT22;2361;49.540;8.390;2023-02-28T00:01:28;1.80;99.90
4695;DHT22;2361;49.540;8.390;2023-02-28T00:03:56;1.80;99.90
4695;DHT22;2361;49.540;8.390;2023-02-28T00:06:24;1.80;99.90
4695;DHT22;2361;49.540;8.390;2023-02-28T00:08:51;1.80;99.90
4695;DHT22;2361;49.540;8.390;2023-02-28T00:11:18;1.80;99.90
4695;DHT22;2361;49.540;8.390;2023-02-28T00:13:46;1.80;99.90
4695;DHT22;2361;49.540;8.390;2023-02-28T00:16:17;1.80;99.90
4695;DHT22;2361;49.540;8.390;2023-02-28T00:18:46;1.90;99.90
4695;DHT22;2361;49.540;8.390;2023-02-28T00:21:15;1.90;99.90
4695;DHT22;2361;49.540;8.390;2023-02-28T00:23:42;1.90;99.90
4695;DHT22;2361;49.540;8.390;2023-02-28T00:26:10;1.90;99.90
4695;DHT22;2361;49.540;8.390;2023-02-28T00:28:37;1.80;99.90
4695;DHT22;2361;49.540;8.390;2023-02-28T00:31:04;1.80;99.90
4695;DHT22;2361;49.540;8.390;2023-02-28T00:33:32;1.80;99.90
4695;DHT22;2361;49.540;8.390;2023-02-28T00:36:04;1.70;99.90
4695;DHT22;2361;49.540;8.390;2023-02-28T00:38:32;1.80;99.90
4695;DHT22;2361;49.540;8.390;2023-02-28T00:40:59;1.70;99.90
4695;DHT22;2361;49.540;8.390;2023-02-28T00:43:32;1.70;99.90
4695;DHT22;2361;49.540;8.390;2023-02-28T00:46:00;1.60;99.90
4695;DHT22;2361;49.540;8.390;2023-02-28T00:48:27;1.60;99.90
4695;DHT22;2361;49.540;8.390;2023-02-28T00:50:54;1.60;99.90
4695;DHT22;2361;49.540;8.390;2023-02-28T00:53:21;1.60;99.90
4695;DHT22;2361;49.540;8.390;2023-02-28T00:55:49;1.60;99.90
4695;DHT22;2361;49.540;8.390;2023-02-28T00:58:16;1.60;99.90
4695;DHT22;2361;49.540;8.390;2023-02-28T01:00:44;1.50;99.90
4695;DHT22;2361;49.540;8.390;2023-02-28T01:03:16;1.40;99.90
4695;DHT22;2361;49.540;8.390;2023-02-28T01:05:45;1.30;99.90
4695;DHT22;2361;49.540;8.390;2023-02-28T01:08:12;1.20;99.90
4695;DHT22;2361;49.540;8.390;2023-02-28T01:10:40;1.20;99.90
4695;DHT22;2361;49.540;8.390;2023-02-28T01:13:07;1.20;99.90
4695;DHT22;2361;49.540;8.390;2023-02-28T01:15:34;1.10;99.90
4695;DHT22;2361;49.540;8.390;2023-02-28T01:18:02;1.10;99.90
4695;DHT22;2361;49.540;8.390;2023-02-28T01:20:29;1.10;99.90
4695;DHT22;2361;49.540;8.390;2023-02-28T01:22:55;1.00;99.90
4695;DHT22;2361;49.540;8.390;2023-02-28T01:25:22;1.00;99.90
4695;DHT22;2361;49.540;8.390;2023-02-28T01:27:49;1.00;99.90
4695;DHT22;2361;49.540;8.390;2023-02-28T01:30:16;1.00;99.90
4695;DHT22;2361;49.540;8.390;2023-02-28T01:32:43;1.00;99.90
4695;DHT22;2361;49.540;8.390;2023-02-28T01:35:10;1.00;99.90
4695;DHT22;2361;49.540;8.390;2023-02-28T01:37:38;1.00;99.90
4695;DHT22;2361;49.540;8.390;2023-02-28T01:40:05;0.90;99.90
4695;DHT22;2361;49.540;8.390;2023-02-28T01:42:33;0.90;99.90
4695;DHT22;2361;49.540;8.390;2023-02-28T01:45:01;0.90;99.90
4695;DHT22;2361;49.540;8.390;2023-02-28T01:47:49;0.80;99.90
4695;DHT22;2361;49.540;8.390;2023-02-28T01:50:20;0.90;99.90
4695;DHT22;2361;49.540;8.390;2023-02-28T01:52:49;0.90;99.90
4695;DHT22;2361;49.540;8.390;2023-02-28T01:55:18;0.90;99.90
4695;DHT22;2361;49.540;8.390;2023-02-28T01:57:50;0.90;99.90
4695;DHT22;2361;49.540;8.390;2023-02-28T02:00:21;0.90;99.90
4695;DHT22;2361;49.540;8.390;2023-02-28T02:02:54;0.90;99.90
4695;DHT22;2361;49.540;8.390;2023-02-28T02:05:26;0.90;99.90
4695;DHT22;2361;49.540;8.390;2023-02-28T02:07:57;0.80;99.90
4695;DHT22;2361;49.540;8.390;2023-02-28T02:10:36;0.80;99.90
4695;DHT22;2361;49.540;8.390;2023-02-28T02:13:29;0.80;99.90
4695;DHT22;2361;49.540;8.390;2023-02-28T02:16:33;0.80;99.90
4695;DHT22;2361;49.540;8.390;2023-02-28T02:19:36;0.90;99.90
4695;DHT22;2361;49.540;8.390;2023-02-28T02:22:37;0.80;99.90
4695;DHT22;2361;49.540;8.390;2023-02-28T02:25:23;0.80;99.90
4695;DHT22;2361;49.540;8.390;2023-02-28T02:34:20;0.80;99.90
4695;DHT22;2361;49.540;8.390;2023-02-28T02:36:59;0.70;99.90
4695;DHT22;2361;49.540;8.390;2023-02-28T02:39:42;0.70;99.90
4695;DHT22;2361;49.540;8.390;2023-02-28T02:42:35;0.70;99.90
4695;DHT22;2361;49.540;8.390;2023-02-28T02:45:21;0.70;99.90
4695;DHT22;2361;49.540;8.390;2023-02-28T02:47:56;0.70;99.90
4695;DHT22;2361;49.540;8.390;2023-02-28T02:50:31;0.70;99.90
4695;DHT22;2361;49.540;8.390;2023-02-28T02:53:03;0.70;99.90
4695;DHT22;2361;49.540;8.390;2023-02-28T02:55:34;0.70;99.90
4695;DHT22;2361;49.540;8.390;2023-02-28T02:58:09;0.60;99.90
4695;DHT22;2361;49.540;8.390;2023-02-28T03:00:42;0.70;99.90
4695;DHT22;2361;49.540;8.390;2023-02-28T03:03:13;0.70;99.90
4695;DHT22;2361;49.540;8.390;2023-02-28T03:05:49;0.70;99.90
4695;DHT22;2361;49.540;8.390;2023-02-28T03:08:17;0.60;99.90
4695;DHT22;2361;49.540;8.390;2023-02-28T03:10:46;0.60;99.90
4695;DHT22;2361;49.540;8.390;2023-02-28T03:17:03;0.60;99.90
4695;DHT22;2361;49.540;8.390;2023-02-28T03:22:46;0.60;99.90
4695;DHT22;2361;49.540;8.390;2023-02-28T03:28:27;0.50;99.90
4695;DHT22;2361;49.540;8.390;2023-02-28T03:31:19;0.50;99.90
4695;DHT22;2361;49.540;8.390;2023-02-28T03:34:34;0.40;99.90
4695;DHT22;2361;49.540;8.390;2023-02-28T03:37:10;0.40;99.90
4695;DHT22;2361;49.540;8.390;2023-02-28T03:39:43;0.40;99.90
4695;DHT22;2361;49.540;8.390;2023-02-28T03:42:20;0.40;99.90
4695;DHT22;2361;49.540;8.390;2023-02-28T03:44:53;0.40;99.90
4695;DHT22;2361;49.540;8.390;2023-02-28T03:50:51;0.40;99.90
4695;DHT22;2361;49.540;8.390;2023-02-28T03:53:21;0.40;99.90
4695;DHT22;2361;49.540;8.390;2023-02-28T03:56:27;0.40;99.90
4695;DHT22;2361;49.540;8.390;2023-02-28T03:59:27;0.40;99.90
4695;DHT22;2361;49.540;8.390;2023-02-28T04:01:57;0.40;99.90
4695;DHT22;2361;49.540;8.390;2023-02-28T04:04:25;0.40;99.90
4695;DHT22;2361;49.540;8.390;2023-02-28T04:06:53;0.40;99.90
4695;DHT22;2361;49.540;8.390;2023-02-28T04:09:28;0.30;99.90
4695;DHT22;2361;49.540;8.390;2023-02-28T04:11:55;0.30;99.90
4695;DHT22;2361;49.540;8.390;2023-02-28T04:14:23;0.30;99.90
4695;DHT22;2361;49.540;8.390;2023-02-28T04:16:50;0.40;99.90
4695;DHT22;2361;49.540;8.390;2023-02-28T04:19:18;0.40;99.90
4695;DHT22;2361;49.540;8.390;2023-02-28T04:21:47;0.40;99.90
4695;DHT22;2361;49.540;8.390;2023-02-28T04:24:19;0.30;99.90
4695;DHT22;2361;49.540;8.390;2023-02-28T04:26:49;0.30;99.90
4695;DHT22;2361;49.540;8.390;2023-02-28T04:29:22;0.30;99.90
4695;DHT22;2361;49.540;8.390;2023-02-28T04:31:53;0.30;99.90
4695;DHT22;2361;49.540;8.390;2023-02-28T04:34:21;0.30;99.90
4695;DHT22;2361;49.540;8.390;2023-02-28T04:36:48;0.30;99.90
4695;DHT22;2361;49.540;8.390;2023-02-28T04:39:36;0.30;99.90
4695;DHT22;2361;49.540;8.390;2023-02-28T04:42:04;0.20;99.90
4695;DHT22;2361;49.540;8.390;2023-02-28T04:44:31;0.20;99.90
4695;DHT22;2361;49.540;8.390;2023-02-28T04:46:58;0.20;99.90
4695;DHT22;2361;49.540;8.390;2023-02-28T04:49:25;0.20;99.90
4695;DHT22;2361;49.540;8.390;2023-02-28T04:51:52;0.20;99.90
4695;DHT22;2361;49.540;8.390;2023-02-28T04:54:19;0.20;99.90
4695;DHT22;2361;49.540;8.390;2023-02-28T04:56:46;0.20;99.90
4695;DHT22;2361;49.540;8.390;2023-02-28T04:59:16;0.20;99.90
4695;DHT22;2361;49.540;8.390;2023-02-28T05:01:46;0.10;99.90
4695;DHT22;2361;49.540;8.390;2023-02-28T05:04:15;0.20;99.90
4695;DHT22;2361;49.540;8.390;2023-02-28T05:06:42;0.20;99.90
4695;DHT22;2361;49.540;8.390;2023-02-28T05:09:09;0.10;99.90
4695;DHT22;2361;49.540;8.390;2023-02-28T05:11:40;0.10;99.90
4695;DHT22;2361;49.540;8.390;2023-02-28T05:14:11;0.10;99.90
4695;DHT22;2361;49.540;8.390;2023-02-28T05:16:39;0.10;99.90
4695;DHT22;2361;49.540;8.390;2023-02-28T05:19:06;0.10;99.90
4695;DHT22;2361;49.540;8.390;2023-02-28T05:21:34;0.10;99.90
4695;DHT22;2361;49.540;8.390;2023-02-28T05:24:06;0.10;99.90
4695;DHT22;2361;49.540;8.390;2023-02-28T05:26:36;0.10;99.90
4695;DHT22;2361;49.540;8.390;2023-02-28T05:29:04;0.10;99.90
4695;DHT22;2361;49.540;8.390;2023-02-28T05:31:31;0.10;99.90
4695;DHT22;2361;49.540;8.390;2023-02-28T05:33:59;0.20;99.90
4695;DHT22;2361;49.540;8.390;2023-02-28T05:36:26;0.20;99.90
4695;DHT22;2361;49.540;8.390;2023-02-28T05:38:53;0.20;99.90
4695;DHT22;2361;49.540;8.390;2023-02-28T05:41:20;0.30;99.90
4695;DHT22;2361;49.540;8.390;2023-02-28T05:43:48;0.30;99.90
4695;DHT22;2361;49.540;8.390;2023-02-28T05:46:15;0.30;99.90
4695;DHT22;2361;49.540;8.390;2023-02-28T05:48:45;0.30;99.90
4695;DHT22;2361;49.540;8.390;2023-02-28T05:51:13;0.30;99.90
4695;DHT22;2361;49.540;8.390;2023-02-28T05:53:40;0.40;99.90
4695;DHT22;2361;49.540;8.390;2023-02-28T05:56:07;0.40;99.90
4695;DHT22;2361;49.540;8.390;2023-02-28T05:58:34;0.40;99.90
4695;DHT22;2361;49.540;8.390;2023-02-28T06:01:23;0.40;99.90
4695;DHT22;2361;49.540;8.390;2023-02-28T06:04:00;0.40;99.90
4695;DHT22;2361;49.540;8.390;2023-02-28T06:06:28;0.40;99.90
4695;DHT22;2361;49.540;8.390;2023-02-28T06:08:56;0.40;99.90
4695;DHT22;2361;49.540;8.390;2023-02-28T06:11:23;0.40;99.90
4695;DHT22;2361;49.540;8.390;2023-02-28T06:13:58;0.40;99.90
4695;DHT22;2361;49.540;8.390;2023-02-28T06:16:28;0.30;99.90
4695;DHT22;2361;49.540;8.390;2023-02-28T06:18:57;0.40;99.90
4695;DHT22;2361;49.540;8.390;2023-02-28T06:21:25;0.40;99.90
4695;DHT22;2361;49.540;8.390;2023-02-28T06:23:55;0.40;99.90
4695;DHT22;2361;49.540;8.390;2023-02-28T06:26:23;0.40;99.90
4695;DHT22;2361;49.540;8.390;2023-02-28T06:28:50;0.40;99.90
4695;DHT22;2361;49.540;8.390;2023-02-28T06:31:18;0.50;99.90
4695;DHT22;2361;49.540;8.390;2023-02-28T06:33:46;0.60;99.90
4695;DHT22;2361;49.540;8.390;2023-02-28T06:36:14;0.60;99.90
4695;DHT22;2361;49.540;8.390;2023-02-28T06:38:42;0.80;99.90
4695;DHT22;2361;49.540;8.390;2023-02-28T06:41:10;0.90;99.90
4695;DHT22;2361;49.540;8.390;2023-02-28T06:43:41;1.00;99.90
4695;DHT22;2361;49.540;8.390;2023-02-28T06:46:11;1.30;99.90
4695;DHT22;2361;49.540;8.390;2023-02-28T06:48:42;1.70;99.90
4695;DHT22;2361;49.540;8.390;2023-02-28T06:51:20;2.10;99.90
4695;DHT22;2361;49.540;8.390;2023-02-28T06:53:49;2.60;99.90
4695;DHT22;2361;49.540;8.390;2023-02-28T06:56:17;3.20;99.90
4695;DHT22;2361;49.540;8.390;2023-02-28T06:58:49;3.50;99.90
4695;DHT22;2361;49.540;8.390;2023-02-28T07:01:17;3.60;99.90
4695;DHT22;2361;49.540;8.390;2023-02-28T07:03:46;3.40;99.90
4695;DHT22;2361;49.540;8.390;2023-02-28T07:06:13;3.10;99.90
4695;DHT22;2361;49.540;8.390;2023-02-28T07:08:40;2.80;99.90
4695;DHT22;2361;49.540;8.390;2023-02-28T07:11:07;2.60;99.90
4695;DHT22;2361;49.540;8.390;2023-02-28T07:13:34;2.50;99.90
4695;DHT22;2361;49.540;8.390;2023-02-28T07:16:04;2.40;99.90
4695;DHT22;2361;49.540;8.390;2023-02-28T07:18:33;2.20;99.90
4695;DHT22;2361;49.540;8.390;2023-02-28T07:21:02;2.10;99.90
4695;DHT22;2361;49.540;8.390;2023-02-28T07:23:35;2.00;99.90
4695;DHT22;2361;49.540;8.390;2023-02-28T07:26:02;1.90;99.90
4695;DHT22;2361;49.540;8.390;2023-02-28T07:28:29;1.90;99.90
4695;DHT22;2361;49.540;8.390;2023-02-28T07:30:56;1.90;99.90
4695;DHT22;2361;49.540;8.390;2023-02-28T07:33:23;1.90;99.90
4695;DHT22;2361;49.540;8.390;2023-02-28T07:35:50;1.90;99.90
4695;DHT22;2361;49.540;8.390;2023-02-28T07:38:17;1.90;99.90
4695;DHT22;2361;49.540;8.390;2023-02-28T07:40:44;1.90;99.90
4695;DHT22;2361;49.540;8.390;2023-02-28T07:43:11;1.90;99.90
4695;DHT22;2361;49.540;8.390;2023-02-28T07:45:38;2.00;99.90
4695;DHT22;2361;49.540;8.390;2023-02-28T07:48:05;2.10;99.90
4695;DHT22;2361;49.540;8.390;2023-02-28T07:50:32;2.30;99.90
4695;DHT22;2361;49.540;8.390;2023-02-28T07:52:59;2.60;99.90
4695;DHT22;2361;49.540;8.390;2023-02-28T07:55:26;2.80;99.90
4695;DHT22;2361;49.540;8.390;2023-02-28T07:57:53;3.10;99.90
4695;DHT22;2361;49.540;8.390;2023-02-28T08:00:21;3.30;99.90
4695;DHT22;2361;49.540;8.390;2023-02-28T08:02:48;3.50;99.90
4695;DHT22;2361;49.540;8.390;2023-02-28T08:05:15;3.70;99.90
4695;DHT22;2361;49.540;8.390;2023-02-28T08:07:42;3.80;99.90
4695;DHT22;2361;49.540;8.390;2023-02-28T08:10:10;3.90;99.90
4695;DHT22;2361;49.540;8.390;2023-02-28T08:12:37;4.10;99.90
4695;DHT22;2361;49.540;8.390;2023-02-28T08:15:04;4.90;99.90
4695;DHT22;2361;49.540;8.390;2023-02-28T08:17:31;6.70;98.90
4695;DHT22;2361;49.540;8.390;2023-02-28T08:20:01;8.30;92.40
4695;DHT22;2361;49.540;8.390;2023-02-28T08:22:28;9.60;85.90
4695;DHT22;2361;49.540;8.390;2023-02-28T08:24:55;10.50;78.60
4695;DHT22;2361;49.540;8.390;2023-02-28T08:27:22;11.30;72.90
4695;DHT22;2361;49.540;8.390;2023-02-28T08:29:49;11.00;71.10
4695;DHT22;2361;49.540;8.390;2023-02-28T08:32:16;10.80;70.70
4695;DHT22;2361;49.540;8.390;2023-02-28T08:34:55;10.30;70.60
4695;DHT22;2361;49.540;8.390;2023-02-28T08:37:22;10.90;70.60
4695;DHT22;2361;49.540;8.390;2023-02-28T08:39:49;12.10;68.00
4695;DHT22;2361;49.540;8.390;2023-02-28T08:42:15;12.90;64.70
4695;DHT22;2361;49.540;8.390;2023-02-28T08:44:43;13.40;61.80
4695;DHT22;2361;49.540;8.390;2023-02-28T08:47:10;14.30;60.40
4695;DHT22;2361;49.540;8.390;2023-02-28T08:49:37;15.50;57.00
4695;DHT22;2361;49.540;8.390;2023-02-28T08:52:04;16.30;54.40
4695;DHT22;2361;49.540;8.390;2023-02-28T08:54:31;16.60;52.80
4695;DHT22;2361;49.540;8.390;2023-02-28T08:56:59;16.30;52.60
4695;DHT22;2361;49.540;8.390;2023-02-28T08:59:26;16.90;50.90
4695;DHT22;2361;49.540;8.390;2023-02-28T09:01:53;16.90;50.80
4695;DHT22;2361;49.540;8.390;2023-02-28T09:04:20;17.50;50.10
4695;DHT22;2361;49.540;8.390;2023-02-28T09:06:50;18.00;48.30
4695;DHT22;2361;49.540;8.390;2023-02-28T09:09:17;18.10;48.00
4695;DHT22;2361;49.540;8.390;2023-02-28T09:11:44;19.10;47.10
4695;DHT22;2361;49.540;8.390;2023-02-28T09:14:11;20.20;45.00
4695;DHT22;2361;49.540;8.390;2023-02-28T09:16:38;19.70;44.70
4695;DHT22;2361;49.540;8.390;2023-02-28T09:19:05;19.70;44.20
4695;DHT22;2361;49.540;8.390;2023-02-28T09:21:31;18.00;45.40
4695;DHT22;2361;49.540;8.390;2023-02-28T09:23:59;17.60;46.30
4695;DHT22;2361;49.540;8.390;2023-02-28T09:30:33;18.50;45.90
4695;DHT22;2361;49.540;8.390;2023-02-28T09:33:00;19.30;44.60
4695;DHT22;2361;49.540;8.390;2023-02-28T09:35:27;19.50;43.90
4695;DHT22;2361;49.540;8.390;2023-02-28T09:37:54;19.10;43.70
4695;DHT22;2361;49.540;8.390;2023-02-28T09:40:23;18.70;44.30
4695;DHT22;2361;49.540;8.390;2023-02-28T09:42:54;18.90;44.00
4695;DHT22;2361;49.540;8.390;2023-02-28T09:45:23;18.30;44.30
4695;DHT22;2361;49.540;8.390;2023-02-28T09:47:56;18.40;43.80
4695;DHT22;2361;49.540;8.390;2023-02-28T09:50:46;18.80;43.40
4695;DHT22;2361;49.540;8.390;2023-02-28T09:53:35;19.00;43.60
4695;DHT22;2361;49.540;8.390;2023-02-28T09:56:11;19.10;43.00
4695;DHT22;2361;49.540;8.390;2023-02-28T09:58:53;19.50;42.40
4695;DHT22;2361;49.540;8.390;2023-02-28T10:04:54;19.50;42.90
4695;DHT22;2361;49.540;8.390;2023-02-28T10:10:41;21.50;40.20
4695;DHT22;2361;49.540;8.390;2023-02-28T10:16:15;19.80;41.00
4695;DHT22;2361;49.540;8.390;2023-02-28T10:19:20;19.70;41.20
4695;DHT22;2361;49.540;8.390;2023-02-28T10:22:03;20.50;40.60
4695;DHT22;2361;49.540;8.390;2023-02-28T10:24:42;21.20;39.70
4695;DHT22;2361;49.540;8.390;2023-02-28T10:29:51;21.20;39.20
4695;DHT22;2361;49.540;8.390;2023-02-28T10:32:26;21.40;39.00
4695;DHT22;2361;49.540;8.390;2023-02-28T10:37:38;21.10;38.90
4695;DHT22;2361;49.540;8.390;2023-02-28T10:40:32;21.10;38.40
4695;DHT22;2361;49.540;8.390;2023-02-28T10:43:05;18.90;40.30
4695;DHT22;2361;49.540;8.390;2023-02-28T10:45:34;18.30;41.00
4695;DHT22;2361;49.540;8.390;2023-02-28T10:51:02;15.90;43.60
4695;DHT22;2361;49.540;8.390;2023-02-28T10:53:38;15.40;44.20
4695;DHT22;2361;49.540;8.390;2023-02-28T10:56:27;14.40;46.00
4695;DHT22;2361;49.540;8.390;2023-02-28T10:59:05;14.10;46.20
4695;DHT22;2361;49.540;8.390;2023-02-28T11:01:53;13.60;47.10
4695;DHT22;2361;49.540;8.390;2023-02-28T11:07:04;11.30;50.00
4695;DHT22;2361;49.540;8.390;2023-02-28T11:09:38;10.20;51.70
4695;DHT22;2361;49.540;8.390;2023-02-28T11:12:19;9.60;53.00
4695;DHT22;2361;49.540;8.390;2023-02-28T11:15:05;9.30;54.10
4695;DHT22;2361;49.540;8.390;2023-02-28T11:17:57;9.10;54.20
4695;DHT22;2361;49.540;8.390;2023-02-28T11:20:29;8.60;55.20
4695;DHT22;2361;49.540;8.390;2023-02-28T11:23:00;8.30;56.00
4695;DHT22;2361;49.540;8.390;2023-02-28T11:25:31;7.90;57.10
4695;DHT22;2361;49.540;8.390;2023-02-28T11:28:01;7.60;57.80
4695;DHT22;2361;49.540;8.390;2023-02-28T11:30:35;7.40;58.10
4695;DHT22;2361;49.540;8.390;2023-02-28T11:33:29;7.30;58.40
4695;DHT22;2361;49.540;8.390;2023-02-28T11:36:23;7.10;58.30
4695;DHT22;2361;49.540;8.390;2023-02-28T11:39:09;7.00;59.40
4695;DHT22;2361;49.540;8.390;2023-02-28T11:42:05;7.00;60.30
4695;DHT22;2361;49.540;8.390;2023-02-28T11:53:39;6.60;61.60
4695;DHT22;2361;49.540;8.390;2023-02-28T12:02:34;6.60;61.90
4695;DHT22;2361;49.540;8.390;2023-02-28T12:22:48;6.20;62.50
4695;DHT22;2361;49.540;8.390;2023-02-28T12:28:21;6.20;63.90
4695;DHT22;2361;49.540;8.390;2023-02-28T12:31:11;6.20;62.90
4695;DHT22;2361;49.540;8.390;2023-02-28T12:33:48;6.20;62.90
4695;DHT22;2361;49.540;8.390;2023-02-28T12:36:19;6.20;63.20
4695;DHT22;2361;49.540;8.390;2023-02-28T12:39:10;6.10;63.10
4695;DHT22;2361;49.540;8.390;2023-02-28T12:41:46;6.00;63.80
4695;DHT22;2361;49.540;8.390;2023-02-28T12:44:46;6.10;64.90
4695;DHT22;2361;49.540;8.390;2023-02-28T12:47:17;6.20;64.80
4695;DHT22;2361;49.540;8.390;2023-02-28T12:55:43;6.20;63.70
4695;DHT22;2361;49.540;8.390;2023-02-28T12:58:36;6.10;63.80
4695;DHT22;2361;49.540;8.390;2023-02-28T13:07:03;6.30;65.30
4695;DHT22;2361;49.540;8.390;2023-02-28T13:09:59;6.40;65.70
4695;DHT22;2361;49.540;8.390;2023-02-28T13:12:27;6.40;65.30
4695;DHT22;2361;49.540;8.390;2023-02-28T13:17:59;6.20;65.90
4695;DHT22;2361;49.540;8.390;2023-02-28T13:20:35;6.30;65.40
4695;DHT22;2361;49.540;8.390;2023-02-28T13:23:03;6.20;65.80
4695;DHT22;2361;49.540;8.390;2023-02-28T13:28:10;6.10;65.20
4695;DHT22;2361;49.540;8.390;2023-02-28T13:33:22;6.10;67.00
4695;DHT22;2361;49.540;8.390;2023-02-28T13:38:50;6.20;67.20
4695;DHT22;2361;49.540;8.390;2023-02-28T13:41:47;6.20;67.20
4695;DHT22;2361;49.540;8.390;2023-02-28T14:06:52;6.10;68.50
4695;DHT22;2361;49.540;8.390;2023-02-28T14:09:30;6.10;68.10
4695;DHT22;2361;49.540;8.390;2023-02-28T14:20:43;6.20;69.80
4695;DHT22;2361;49.540;8.390;2023-02-28T14:23:35;6.30;68.90
4695;DHT22;2361;49.540;8.390;2023-02-28T14:26:22;6.30;68.80
4695;DHT22;2361;49.540;8.390;2023-02-28T14:29:07;6.30;69.10
4695;DHT22;2361;49.540;8.390;2023-02-28T14:31:54;6.30;68.70
4695;DHT22;2361;49.540;8.390;2023-02-28T14:37:20;6.30;68.10
4695;DHT22;2361;49.540;8.390;2023-02-28T14:39:55;6.20;67.80
4695;DHT22;2361;49.540;8.390;2023-02-28T14:42:34;6.20;67.90
4695;DHT22;2361;49.540;8.390;2023-02-28T14:45:04;6.10;68.40
4695;DHT22;2361;49.540;8.390;2023-02-28T14:47:33;6.20;68.80
4695;DHT22;2361;49.540;8.390;2023-02-28T14:50:03;6.20;68.80
4695;DHT22;2361;49.540;8.390;2023-02-28T14:52:32;6.20;68.30
4695;DHT22;2361;49.540;8.390;2023-02-28T14:55:03;6.10;69.10
4695;DHT22;2361;49.540;8.390;2023-02-28T14:58:04;6.10;68.60
4695;DHT22;2361;49.540;8.390;2023-02-28T15:00:34;6.10;69.10
4695;DHT22;2361;49.540;8.390;2023-02-28T15:03:20;6.10;69.80
4695;DHT22;2361;49.540;8.390;2023-02-28T15:06:03;6.10;70.20
4695;DHT22;2361;49.540;8.390;2023-02-28T15:08:32;6.10;69.70
4695;DHT22;2361;49.540;8.390;2023-02-28T15:11:05;6.10;70.40
4695;DHT22;2361;49.540;8.390;2023-02-28T15:13:45;6.10;70.20
4695;DHT22;2361;49.540;8.390;2023-02-28T15:16:20;6.10;70.70
4695;DHT22;2361;49.540;8.390;2023-02-28T15:18:58;6.00;70.70
4695;DHT22;2361;49.540;8.390;2023-02-28T15:21:32;6.00;70.80
4695;DHT22;2361;49.540;8.390;2023-02-28T15:26:44;5.90;71.40
4695;DHT22;2361;49.540;8.390;2023-02-28T15:29:16;6.00;71.50
4695;DHT22;2361;49.540;8.390;2023-02-28T15:31:50;6.00;70.40
4695;DHT22;2361;49.540;8.390;2023-02-28T15:34:40;6.00;70.40
4695;DHT22;2361;49.540;8.390;2023-02-28T15:37:39;6.00;70.80
4695;DHT22;2361;49.540;8.390;2023-02-28T15:40:22;6.00;70.50
4695;DHT22;2361;49.540;8.390;2023-02-28T15:43:04;5.90;71.10
4695;DHT22;2361;49.540;8.390;2023-02-28T15:45:50;5.90;71.50
4695;DHT22;2361;49.540;8.390;2023-02-28T15:48:21;5.80;71.10
4695;DHT22;2361;49.540;8.390;2023-02-28T15:50:53;5.80;71.60
4695;DHT22;2361;49.540;8.390;2023-02-28T15:53:32;5.80;71.80
4695;DHT22;2361;49.540;8.390;2023-02-28T15:56:04;5.80;72.10
4695;DHT22;2361;49.540;8.390;2023-02-28T15:58:35;5.80;72.30
4695;DHT22;2361;49.540;8.390;2023-02-28T16:01:29;5.80;72.40
4695;DHT22;2361;49.540;8.390;2023-02-28T16:04:15;5.70;72.30
4695;DHT22;2361;49.540;8.390;2023-02-28T16:07:03;5.80;72.50
4695;DHT22;2361;49.540;8.390;2023-02-28T16:09:32;5.70;72.60
4695;DHT22;2361;49.540;8.390;2023-02-28T16:12:02;5.70;72.90
4695;DHT22;2361;49.540;8.390;2023-02-28T16:14:30;5.70;73.20
4695;DHT22;2361;49.540;8.390;2023-02-28T16:17:04;5.70;73.10
4695;DHT22;2361;49.540;8.390;2023-02-28T16:19:32;5.60;73.30
4695;DHT22;2361;49.540;8.390;2023-02-28T16:22:00;5.60;73.80
4695;DHT22;2361;49.540;8.390;2023-02-28T16:24:27;5.60;74.40
4695;DHT22;2361;49.540;8.390;2023-02-28T16:26:55;5.60;74.90
4695;DHT22;2361;49.540;8.390;2023-02-28T16:29:28;5.60;74.90
4695;DHT22;2361;49.540;8.390;2023-02-28T16:31:57;5.60;74.70
4695;DHT22;2361;49.540;8.390;2023-02-28T16:34:25;5.70;74.80
4695;DHT22;2361;49.540;8.390;2023-02-28T16:36:52;5.70;75.00
4695;DHT22;2361;49.540;8.390;2023-02-28T16:39:20;5.70;75.30
4695;DHT22;2361;49.540;8.390;2023-02-28T16:41:48;5.70;75.10
4695;DHT22;2361;49.540;8.390;2023-02-28T16:47:00;5.60;76.60
4695;DHT22;2361;49.540;8.390;2023-02-28T16:49:28;5.70;76.40
4695;DHT22;2361;49.540;8.390;2023-02-28T16:51:55;5.70;76.60
4695;DHT22;2361;49.540;8.390;2023-02-28T16:54:22;5.70;76.80
4695;DHT22;2361;49.540;8.390;2023-02-28T16:56:49;5.60;77.10
4695;DHT22;2361;49.540;8.390;2023-02-28T16:59:22;5.60;77.10
4695;DHT22;2361;49.540;8.390;2023-02-28T17:01:51;5.50;77.40
4695;DHT22;2361;49.540;8.390;2023-02-28T17:04:18;5.50;77.80
4695;DHT22;2361;49.540;8.390;2023-02-28T17:06:45;5.50;77.80
4695;DHT22;2361;49.540;8.390;2023-02-28T17:09:18;5.50;77.90
4695;DHT22;2361;49.540;8.390;2023-02-28T17:11:49;5.50;78.20
4695;DHT22;2361;49.540;8.390;2023-02-28T17:14:16;5.40;78.30
4695;DHT22;2361;49.540;8.390;2023-02-28T17:16:43;5.50;78.50
4695;DHT22;2361;49.540;8.390;2023-02-28T17:19:15;5.50;78.40
4695;DHT22;2361;49.540;8.390;2023-02-28T17:21:43;5.40;78.70
4695;DHT22;2361;49.540;8.390;2023-02-28T17:24:11;5.40;78.90
4695;DHT22;2361;49.540;8.390;2023-02-28T17:26:44;5.40;79.00
4695;DHT22;2361;49.540;8.390;2023-02-28T17:29:15;5.40;78.90
4695;DHT22;2361;49.540;8.390;2023-02-28T17:31:44;5.30;79.20
4695;DHT22;2361;49.540;8.390;2023-02-28T17:34:11;5.30;79.60
4695;DHT22;2361;49.540;8.390;2023-02-28T17:36:45;5.30;79.90
4695;DHT22;2361;49.540;8.390;2023-02-28T17:39:14;5.20;80.20
4695;DHT22;2361;49.540;8.390;2023-02-28T17:41:46;5.30;80.70
4695;DHT22;2361;49.540;8.390;2023-02-28T17:44:13;5.20;80.70
4695;DHT22;2361;49.540;8.390;2023-02-28T17:46:40;5.20;80.90
4695;DHT22;2361;49.540;8.390;2023-02-28T17:49:08;5.20;81.30
4695;DHT22;2361;49.540;8.390;2023-02-28T17:51:36;5.10;81.60
4695;DHT22;2361;49.540;8.390;2023-02-28T17:54:03;5.10;81.80
4695;DHT22;2361;49.540;8.390;2023-02-28T17:56:31;5.10;82.00
4695;DHT22;2361;49.540;8.390;2023-02-28T17:58:58;5.00;82.40
4695;DHT22;2361;49.540;8.390;2023-02-28T18:01:25;5.10;82.80
4695;DHT22;2361;49.540;8.390;2023-02-28T18:03:53;5.10;82.70
4695;DHT22;2361;49.540;8.390;2023-02-28T18:09:16;5.00;84.00
4695;DHT22;2361;49.540;8.390;2023-02-28T18:11:44;5.00;83.30
4695;DHT22;2361;49.540;8.390;2023-02-28T18:14:18;4.90;83.20
4695;DHT22;2361;49.540;8.390;2023-02-28T18:16:49;4.90;83.50
4695;DHT22;2361;49.540;8.390;2023-02-28T18:19:17;4.90;84.50
4695;DHT22;2361;49.540;8.390;2023-02-28T18:21:46;4.90;84.50
4695;DHT22;2361;49.540;8.390;2023-02-28T18:24:15;4.90;85.30
4695;DHT22;2361;49.540;8.390;2023-02-28T18:26:43;4.80;86.70
4695;DHT22;2361;49.540;8.390;2023-02-28T18:29:17;4.80;86.70
4695;DHT22;2361;49.540;8.390;2023-02-28T18:31:50;4.80;87.30
4695;DHT22;2361;49.540;8.390;2023-02-28T18:34:18;4.80;88.00
4695;DHT22;2361;49.540;8.390;2023-02-28T18:36:47;4.70;88.00
4695;DHT22;2361;49.540;8.390;2023-02-28T18:39:16;4.70;88.30
4695;DHT22;2361;49.540;8.390;2023-02-28T18:41:44;4.60;88.80
4695;DHT22;2361;49.540;8.390;2023-02-28T18:44:11;4.60;89.30
4695;DHT22;2361;49.540;8.390;2023-02-28T18:46:46;4.60;89.50
4695;DHT22;2361;49.540;8.390;2023-02-28T18:49:14;4.60;89.60
4695;DHT22;2361;49.540;8.390;2023-02-28T18:51:41;4.50;89.90
4695;DHT22;2361;49.540;8.390;2023-02-28T18:54:11;4.50;90.00
4695;DHT22;2361;49.540;8.390;2023-02-28T18:56:39;4.50;90.30
4695;DHT22;2361;49.540;8.390;2023-02-28T18:59:06;4.40;90.50
4695;DHT22;2361;49.540;8.390;2023-02-28T19:01:33;4.40;90.60
4695;DHT22;2361;49.540;8.390;2023-02-28T19:04:01;4.30;90.80
4695;DHT22;2361;49.540;8.390;2023-02-28T19:06:29;4.30;90.90
4695;DHT22;2361;49.540;8.390;2023-02-28T19:08:59;4.30;91.00
4695;DHT22;2361;49.540;8.390;2023-02-28T19:11:27;4.30;91.10
4695;DHT22;2361;49.540;8.390;2023-02-28T19:13:55;4.30;91.20